• Join FlightAware (Why Join?)
  • Login
  • US Flag 
12:01AM EDT


 

Airport Tracker/Info


-or-


 

Live Flight TrackerFlight Track Log ✈ KFS20 ✈ 30-Aug-2013 ✈ KYIP - KEYE

Flight Track Log - Related Links

Times and Time Zones

All times are in EDT time to prevent confusion due to time zone crossing. See the KFS20 flight status page for this flight to view local times or setup timezone preferences in your user account.

Time Position Orientation Groundspeed Altitude Reporting Facility
EDT Latitude Longitude Course Direction KTS MPH feet Rate Location/Type
03:58PM 42.2150 -83.5692 233° Southwest 154 177 1,700  Level Cleveland Center
03:59PM 42.1844 -83.6236 233° Southwest 174 200 3,700 1,200 Climbing Cleveland Center
04:00PM 42.1972 -83.6944 284° West 205 236 4,400 1,200 Climbing Cleveland Center
04:01PM 42.2036 -83.7619 277° West 163 188 6,200 1,260 Climbing Cleveland Center
04:02PM 42.2142 -83.8297 282° West 184 212 7,000 360 Climbing Cleveland Center
04:03PM 42.2225 -83.9089 278° West 220 253 7,000 480 Level Cleveland Center
04:05PM 42.2500 -84.0513 270° West  Level FlightAware Approximate
04:07PM 42.1969 -84.1814 236° Southwest 214 246 9,600  Level Chicago Center
04:08PM 42.1431 -84.2225 209° Southwest 220 253 10,000 180 Climbing Chicago Center
04:09PM 42.0747 -84.2808 212° Southwest 237 273 10,000 120 Level Chicago Center
04:10PM 42.0172 -84.3306 213° Southwest 243 280 10,300 480 Climbing Chicago Center
04:11PM 41.9725 -84.3706 214° Southwest 243 280 10,900 360 Climbing Cleveland Center
04:12PM 42.1535 -84.6098 236° Southwest  Level FlightAware Approximate
04:12PM 41.9186 -84.4206 215° Southwest 243 280 11,000  Level Cleveland Center
04:13PM 41.8628 -84.4731 215° Southwest 243 280 11,000 420 Level Cleveland Center
04:14PM 41.8069 -84.5169 210° Southwest 248 285 11,900 1,020 Climbing Cleveland Center
04:15PM 41.7575 -84.5611 214° Southwest 229 264 13,100 1,140 Climbing Cleveland Center
04:16PM 41.7125 -84.5975 211° Southwest 215 247 14,300 900 Climbing Cleveland Center
04:17PM 41.6650 -84.6417 215° Southwest 204 235 15,000 360 Climbing Cleveland Center
04:18PM 41.6133 -84.6886 214° Southwest 210 242 15,100 360 Climbing Cleveland Center
04:18PM 41.5922 -84.7028 207° Southwest 232 267 15,600 1,020 Climbing Chicago Center
04:19PM 41.5419 -84.7456 212° Southwest 217 250 16,700 1,020 Climbing Chicago Center
04:20PM 41.4867 -84.7958 214° Southwest 202 232 17,800 960 Climbing Chicago Center
04:21PM 41.4397 -84.8367 213° Southwest 201 231 18,800 840 Climbing Chicago Center
04:22PM 41.3936 -84.8758 213° Southwest 198 228 19,600 540 Climbing Chicago Center
04:23PM 41.3456 -84.9175 213° Southwest 203 234 20,000 180 Climbing Chicago Center
04:25PM 41.2933 -84.9639 214° Southwest 222 255 20,000  Level Chicago Center
04:26PM 41.2378 -85.0153 215° Southwest 239 275 20,000  Level Chicago Center
04:27PM 41.1797 -85.0650 213° Southwest 246 283 20,000  Level Chicago Center
04:28PM 41.1092 -85.1231 212° Southwest 248 285 20,000  Level Chicago Center
04:29PM 41.0481 -85.1681 209° Southwest 250 288 20,000  Level Chicago Center
04:30PM 40.9867 -85.2114 208° Southwest 250 288 20,000  Level Chicago Center
04:31PM 40.9258 -85.2569 210° Southwest 251 289 20,000  Level Chicago Center
04:32PM 40.8642 -85.3019 209° Southwest 252 290 20,000  Level Chicago Center
04:33PM 40.8033 -85.3483 210° Southwest 251 289 20,000  Level Chicago Center
04:34PM 40.7292 -85.4017 209° Southwest 253 291 20,000  Level Chicago Center
04:35PM 40.6628 -85.4328 200° South 254 292 20,000  Level Chicago Center
04:36PM 40.6014 -85.4608 199° South 256 295 20,000 -300 Level Chicago Center
04:37PM 40.5203 -85.5006 200° South 261 300 19,400 -720 Descending Chicago Center
04:38PM 40.4528 -85.5519 210° Southwest 278 320 18,600 -840 Descending Chicago Center
04:39PM 40.3869 -85.6053 212° Southwest 279 321 17,700 -1,080 Descending Chicago Center
04:40PM 40.3453 -85.6389 212° Southwest 282 325 16,900 -1,320 Descending Indianapolis Center
04:41PM 40.2778 -85.6956 213° Southwest 287 330 15,600 -1,380 Descending Indianapolis Center
04:42PM 40.2242 -85.7694 226° Southwest 282 325 14,100 -1,500 Descending Indianapolis Center
04:43PM 40.1764 -85.8483 232° Southwest 280 322 12,500 -1,680 Descending Indianapolis Center
04:44PM 40.1225 -85.9358 231° Southwest 264 304 10,700 -1,800 Descending Indianapolis Center
04:45PM 40.0803 -86.0094 233° Southwest 259 298 8,800 -1,800 Descending Indianapolis Center
04:46PM 40.0394 -86.0772 232° Southwest 250 288 7,100 -1,860 Descending Indianapolis Center
04:47PM 40.0031 -86.1431 234° Southwest 238 274 5,000 -1,740 Descending Indianapolis Center
04:48PM 39.9694 -86.2075 236° Southwest 227 261 3,600 -1,380 Descending Indianapolis Center